Latest Weather Observations for Yeppoon

IDQ60801

Issued at 4:32 pm EST Thursday 24 August 2017 (issued every 30 minutes, with the page automatically refreshed every 10 minutes)

About weather observations | Map of weather stations | Latest weather observations for QLD | Other Formats
Station Details ID: 033294 Name: YEPPOON THE ESPLANADE Lat: -23.14 Lon: 150.75 Height: 5.5 m
Data from the previous 72 hours. | See also: Recent months at Yeppoon
Date/Time
EST
Temp
°C
App
Temp
°C
Dew
Point
°C
Rel
Hum
%
Delta-T
°C
Wind Press
QNH
hPa
Press
MSL
hPa
Rain since
9am
mm
Dir  Spd
km/h
Gust
km/h
Spd
kts
Gust
kts
24/04:30pm 22.5 21.3 17.4 73 3.1 NE 20 26 11 14 1014.4 1014.4 0.0
24/04:00pm 22.7 21.3 16.9 70 3.6 NE 20 26 11 14 1014.3 1014.3 0.0
24/03:30pm 23.1 22.0 17.8 72 3.3 NE 20 26 11 14 1014.2 1014.2 0.0
24/03:00pm 23.3 22.3 17.5 70 3.6 NE 19 26 10 14 1014.3 1014.3 0.0
24/02:30pm 23.5 22.3 17.5 69 3.7 NE 20 26 11 14 1014.5 1014.5 0.0
24/02:00pm 23.6 23.1 17.8 70 3.6 NE 17 24 9 13 1014.7 1014.7 0.0
24/01:30pm 23.7 23.2 17.7 69 3.7 NE 17 20 9 11 1015.2 1015.2 0.0
24/01:00pm 23.8 23.2 17.5 68 3.9 NE 17 20 9 11 1015.7 1015.7 0.0
24/12:30pm 23.3 22.5 17.1 68 3.8 NE 17 20 9 11 1016.2 1016.2 0.0
24/12:00pm 23.7 22.5 17.0 66 4.1 NE 19 22 10 12 1016.5 1016.5 0.0
24/11:30am 23.2 22.5 16.5 66 4.1 ENE 15 17 8 9 1017.0 1017.0 0.0
24/11:00am 23.3 23.1 16.6 66 4.1 ENE 13 15 7 8 1017.7 1017.7 0.0
24/10:30am 22.9 22.1 16.2 66 4.1 ENE 15 17 8 9 1018.0 1018.0 0.0
24/10:00am 22.7 22.2 16.0 66 4.0 NE 13 15 7 8 1018.2 1018.2 0.0
24/09:30am 23.1 23.5 15.4 62 4.6 WNW 7 9 4 5 1018.4 1018.4 0.0
24/09:00am 22.0 22.3 15.1 65 4.1 WNW 7 11 4 6 1018.4 1018.4 0.0
24/08:30am 21.0 21.7 16.2 74 2.9 WNW 7 9 4 5 1018.5 1018.5 0.0
24/08:00am 18.5 19.2 15.6 83 1.7 WNW 6 9 3 5 1018.3 1018.3 0.0
24/07:30am 16.3 15.6 14.3 88 1.1 WNW 11 11 6 6 1018.2 1018.2 0.0
24/07:00am 15.4 14.9 13.9 91 0.8 WNW 9 13 5 7 1018.0 1018.0 0.0
24/06:30am 14.5 13.7 13.0 91 0.8 NW 9 13 5 7 1017.8 1017.8 0.0
24/06:00am 14.6 13.9 13.3 92 0.7 N 9 11 5 6 1017.4 1017.4 0.0
24/05:30am 14.7 14.5 13.6 93 0.6 N 7 9 4 5 1017.2 1017.2 0.0
24/05:00am 14.7 14.6 13.4 92 0.7 N 6 9 3 5 1017.1 1017.1 0.0
24/04:30am 14.7 14.5 13.1 90 0.9 N 6 7 3 4 1017.0 1017.0 0.0
24/04:00am 15.8 15.8 14.2 90 0.9 N 7 13 4 7 1016.7 1016.7 0.0
24/03:30am 15.7 15.8 13.9 89 1.0 N 6 11 3 6 1017.0 1017.0 0.0
24/03:00am 17.1 17.1 15.3 89 1.0 N 9 11 5 6 1017.2 1017.2 0.0
24/02:30am 16.5 17.2 14.5 88 1.1 N 4 7 2 4 1017.5 1017.5 0.0
24/02:00am 18.2 18.4 15.8 86 1.4 N 9 13 5 7 1017.6 1017.6 0.0
24/01:30am 19.4 19.1 17.4 88 1.2 NNE 15 19 8 10 1017.9 1017.9 0.0
24/01:00am 16.2 16.7 15.1 93 0.6 N 6 7 3 4 1018.5 1018.5 0.0
24/12:30am 16.4 16.9 15.1 92 0.8 N 6 7 3 4 1018.8 1018.8 0.0
24/12:00am 16.8 18.5 15.3 91 0.9 CALM 0 0 0 0 1019.0 1019.0 0.0
 
Date/Time
EST
Temp
°C
App
Temp
°C
Dew
Point
°C
Rel
Hum
%
Delta-T
°C
Wind Press
QNH
hPa
Press
MSL
hPa
Rain since
9am
mm
Dir  Spd
km/h
Gust
km/h
Spd
kts
Gust
kts
23/11:30pm 17.0 18.7 15.3 90 1.0 CALM 0 6 0 3 1019.0 1019.0 0.0
23/11:00pm 17.4 18.1 15.6 89 1.1 N 6 7 3 4 1019.3 1019.3 0.0
23/10:30pm 17.9 19.8 15.7 87 1.3 CALM 0 0 0 0 1019.1 1019.1 0.0
23/10:00pm 18.7 20.6 15.8 83 1.7 CALM 0 4 0 2 1019.2 1019.2 0.0
23/09:30pm 20.2 21.0 16.4 79 2.3 N 7 13 4 7 1019.1 1019.1 0.0
23/09:00pm 20.4 20.2 16.8 80 2.2 N 13 15 7 8 1019.0 1019.0 0.0
23/08:30pm 20.1 20.6 16.5 80 2.2 N 9 13 5 7 1018.8 1018.8 0.0
23/08:00pm 20.4 20.6 16.8 80 2.2 NNE 11 13 6 7 1018.7 1018.7 0.0
23/07:30pm 20.8 20.7 17.0 79 2.3 NNE 13 17 7 9 1018.5 1018.5 0.0
23/07:00pm 20.7 20.5 16.7 78 2.4 N 13 15 7 8 1018.3 1018.3 0.0
23/06:30pm 20.9 20.3 16.7 77 2.5 N 15 19 8 10 1018.2 1018.2 0.0
23/06:00pm 21.6 20.4 17.0 75 2.8 NNE 19 24 10 13 1017.9 1017.9 0.0
23/05:30pm 21.8 20.7 17.2 75 2.8 NE 19 22 10 12 1017.8 1017.8 0.0
23/05:00pm 21.9 20.6 16.8 73 3.1 NE 19 24 10 13 1017.7 1017.7 0.0
23/04:30pm 22.4 21.6 17.1 72 3.3 NE 17 22 9 12 1017.5 1017.5 0.0
23/04:00pm 22.7 21.6 17.4 72 3.3 NE 19 24 10 13 1017.7 1017.7 0.0
23/03:30pm 23.1 22.7 18.0 73 3.2 NE 17 20 9 11 1017.6 1017.6 0.0
23/03:00pm 23.5 23.2 17.3 68 3.8 NE 15 20 8 11 1017.9 1017.9 0.0
23/02:30pm 23.9 23.3 16.7 64 4.4 NE 15 20 8 11 1018.1 1018.1 0.0
23/02:00pm 24.6 24.4 17.6 65 4.4 NE 15 17 8 9 1018.3 1018.3 0.0
23/01:30pm 24.6 24.2 17.1 63 4.6 NE 15 19 8 10 1018.6 1018.6 0.0
23/01:00pm 24.6 24.2 17.1 63 4.6 NE 15 20 8 11 1018.8 1018.8 0.0
23/12:30pm 23.7 22.9 17.0 66 4.1 NE 17 20 9 11 1019.1 1019.1 0.0
23/12:00pm 23.7 22.7 16.7 65 4.3 NE 17 20 9 11 1019.5 1019.5 0.0
23/11:30am 23.9 23.4 16.9 65 4.3 NE 15 17 8 9 1019.9 1019.9 0.0
23/11:00am 23.6 23.7 16.6 65 4.3 NE 11 13 6 7 1020.4 1020.4 0.0
23/10:30am 23.7 24.0 16.0 62 4.7 N 9 13 5 7 1020.8 1020.8 0.0
23/10:00am 23.7 24.6 16.7 65 4.3 N 7 9 4 5 1021.1 1021.1 0.0
23/09:30am 22.8 23.8 16.8 69 3.7 N 7 9 4 5 1021.2 1021.2 0.0
23/09:00am 22.2 23.1 16.0 68 3.7 N 6 7 3 4 1021.2 1021.2 0.0
23/08:30am 21.0 23.1 16.2 74 2.9 CALM 0 0 0 0 1021.0 1021.0 0.0
23/08:00am 19.4 21.6 16.4 83 1.8 CALM 0 0 0 0 1020.7 1020.7 0.0
23/07:30am 16.9 18.5 14.9 88 1.2 CALM 0 0 0 0 1020.4 1020.4 0.0
23/07:00am 16.2 17.3 14.6 90 0.9 N 2 7 1 4 1020.2 1020.2 0.0
23/06:30am 15.7 15.9 14.1 90 0.9 N 6 7 3 4 1020.1 1020.1 0.0
23/06:00am 15.5 15.6 13.9 90 0.9 N 6 9 3 5 1019.9 1019.9 0.0
23/05:30am 15.6 15.6 14.1 91 0.8 N 7 11 4 6 1019.6 1019.6 0.0
23/05:00am 15.9 16.1 14.3 90 0.9 N 6 9 3 5 1019.2 1019.2 0.0
23/04:30am 16.3 16.4 14.5 89 1.0 N 7 11 4 6 1019.2 1019.2 0.0
23/04:00am 16.3 16.5 14.1 87 1.2 N 6 7 3 4 1019.3 1019.3 0.0
23/03:30am 17.2 18.8 15.0 87 1.3 CALM 0 0 0 0 1019.2 1019.2 0.0
23/03:00am 18.0 19.6 14.9 82 1.8 CALM 0 6 0 3 1019.0 1019.0 0.0
23/02:30am 19.6 20.3 15.5 77 2.4 N 6 7 3 4 1018.9 1018.9 0.0
23/02:00am 20.1 19.9 15.7 76 2.6 NNE 11 15 6 8 1019.2 1019.2 0.0
23/01:30am 20.3 20.9 15.3 73 3.0 N 6 11 3 6 1019.4 1019.4 0.0
23/01:00am 20.5 20.2 15.5 73 3.0 N 11 17 6 9 1019.8 1019.8 0.0
23/12:30am 20.5 20.6 15.5 73 3.0 N 9 15 5 8 1020.0 1020.0 0.0
23/12:00am 20.3 20.4 15.5 74 2.8 N 9 15 5 8 1020.0 1020.0 0.0
 
Date/Time
EST
Temp
°C
App
Temp
°C
Dew
Point
°C
Rel
Hum
%
Delta-T
°C
Wind Press
QNH
hPa
Press
MSL
hPa
Rain since
9am
mm
Dir  Spd
km/h
Gust
km/h
Spd
kts
Gust
kts
22/11:30pm 20.4 20.5 16.4 78 2.4 N 11 15 6 8 1019.9 1019.9 0.0
22/11:00pm 20.4 19.7 16.4 78 2.4 N 15 19 8 10 1019.8 1019.8 0.0
22/10:30pm 20.4 19.2 16.0 76 2.6 N 17 20 9 11 1019.8 1019.8 0.0
22/10:00pm 20.4 19.7 15.4 73 3.0 N 13 19 7 10 1019.8 1019.8 0.0
22/09:30pm 20.7 20.2 15.0 70 3.4 N 11 19 6 10 1019.9 1019.9 0.0
22/09:00pm 20.5 19.8 15.5 73 3.0 N 13 19 7 10 1019.7 1019.7 0.0
22/08:30pm 20.8 20.1 15.4 71 3.2 N 13 17 7 9 1019.6 1019.6 0.0
22/08:00pm 20.7 20.5 15.7 73 3.0 N 11 17 6 9 1019.3 1019.3 0.0
22/07:30pm 20.7 20.6 15.9 74 2.9 N 11 15 6 8 1019.0 1019.0 0.0
22/07:00pm 21.0 19.3 16.2 74 2.9 N 20 28 11 15 1018.6 1018.6 0.0
22/06:30pm 21.8 18.6 17.2 75 2.8 NNE 30 35 16 19 1018.0 1018.0 0.0
22/06:00pm 21.8 18.2 17.2 75 2.8 NNE 32 35 17 19 1017.7 1017.7 0.0
22/05:30pm 21.8 18.1 17.0 74 2.9 NNE 32 35 17 19 1017.4 1017.4 0.0
22/05:00pm 22.0 19.2 17.2 74 2.9 NNE 28 33 15 18 1017.3 1017.3 0.0
22/04:30pm 22.2 20.4 17.8 76 2.7 NE 24 28 13 15 1017.2 1017.2 0.0
22/04:00pm 22.6 21.1 17.7 74 3.0 NE 22 28 12 15 1017.1 1017.1 0.0
22/03:30pm 22.7 20.7 17.4 72 3.3 NE 24 32 13 17 1017.0 1017.0 0.0
22/03:00pm 23.1 22.1 17.6 71 3.4 NE 19 24 10 13 1017.1 1017.1 0.0
22/02:30pm 23.1 21.9 17.1 69 3.7 NE 19 24 10 13 1017.2 1017.2 0.0
22/02:00pm 23.3 22.4 17.7 71 3.5 NE 19 22 10 12 1017.4 1017.4 0.0
22/01:30pm 23.5 22.3 17.5 69 3.7 NE 20 24 11 13 1017.5 1017.5 0.0
22/01:00pm 23.6 22.7 16.9 66 4.1 NE 17 20 9 11 1018.0 1018.0 0.0
22/12:30pm 23.5 22.9 17.5 69 3.7 ENE 17 20 9 11 1018.4 1018.4 0.0
22/12:00pm 22.4 21.6 17.1 72 3.2 ENE 17 19 9 10 1018.9 1018.9 0.0
22/11:30am 22.4 22.2 17.5 74 3.0 E 15 17 8 9 1019.4 1019.4 0.0
22/11:00am 22.2 22.1 16.9 72 3.2 W 13 15 7 8 1019.7 1019.7 0.0
22/10:30am 21.9 22.1 16.8 73 3.1 W 11 13 6 7 1019.9 1019.9 0.0
22/10:00am 21.9 22.3 16.2 70 3.4 W 9 11 5 6 1020.2 1020.2 0.0
22/09:30am 21.4 22.0 15.7 70 3.4 W 7 9 4 5 1020.3 1020.3 0.0
22/09:00am 20.8 21.7 16.0 74 2.9 W 6 7 3 4 1020.2 1020.2 0.0
22/08:30am 19.7 21.7 16.0 79 2.2 CALM 0 0 0 0 1020.1 1020.1 0.0
22/08:00am 17.3 17.7 14.8 85 1.4 W 6 7 3 4 1020.0 1020.0 0.0
22/07:30am 15.5 15.0 13.9 90 0.9 W 9 13 5 7 1019.8 1019.8 0.0
22/07:00am 14.6 13.9 13.1 91 0.8 W 9 13 5 7 1019.6 1019.6 0.0
22/06:30am 14.6 13.5 13.1 91 0.8 W 11 13 6 7 1019.3 1019.3 0.0
22/06:00am 15.2 14.3 13.6 90 0.9 W 11 11 6 6 1019.0 1019.0 0.0
22/05:30am 15.6 15.0 13.6 88 1.1 W 9 11 5 6 1018.9 1018.9 0.0
22/05:00am 16.0 15.5 13.7 86 1.3 W 9 13 5 7 1018.7 1018.7 0.0
22/04:30am 16.9 16.2 14.2 84 1.5 W 11 15 6 8 1018.4 1018.4 0.0
22/04:00am 16.7 16.8 14.0 84 1.5 N 6 9 3 5 1018.4 1018.4 0.0
22/03:30am 18.2 18.4 14.1 77 2.3 N 6 11 3 6 1018.3 1018.3 0.0
22/03:00am 19.1 17.4 14.8 76 2.5 N 17 20 9 11 1017.7 1017.7 0.0
22/02:30am 18.9 18.1 15.0 78 2.3 N 13 17 7 9 1017.8 1017.8 0.0
22/02:00am 18.7 17.9 15.2 80 2.0 N 13 17 7 9 1018.1 1018.1 0.0
22/01:30am 16.9 16.3 14.7 87 1.3 N 11 13 6 7 1018.5 1018.5 0.0
22/01:00am 16.3 16.4 14.0 86 1.3 N 6 7 3 4 1018.9 1018.9 0.0
22/12:30am 17.3 17.7 13.8 80 2.0 N 4 7 2 4 1019.1 1019.1 0.0
22/12:00am 19.0 18.4 14.7 76 2.5 N 11 15 6 8 1019.2 1019.2 0.0
 
Date/Time
EST
Temp
°C
App
Temp
°C
Dew
Point
°C
Rel
Hum
%
Delta-T
°C
Wind Press
QNH
hPa
Press
MSL
hPa
Rain since
9am
mm
Dir  Spd
km/h
Gust
km/h
Spd
kts
Gust
kts
21/11:30pm 19.0 18.2 15.1 78 2.3 N 13 15 7 8 1019.1 1019.1 0.0
21/11:00pm 19.4 18.0 15.5 78 2.3 N 17 20 9 11 1019.0 1019.0 0.0
21/10:30pm 19.6 17.6 15.5 77 2.4 N 20 28 11 15 1019.1 1019.1 0.0
21/10:00pm 20.4 17.8 15.8 75 2.7 NNE 24 30 13 16 1019.2 1019.2 0.0
21/09:30pm 20.5 18.8 16.3 77 2.5 NE 20 26 11 14 1019.4 1019.4 0.0
21/09:00pm 20.3 18.7 16.1 77 2.5 NE 19 20 10 11 1019.6 1019.6 0.0
21/08:30pm 20.2 18.5 15.8 76 2.6 NE 19 22 10 12 1019.6 1019.6 0.0
21/08:00pm 20.2 18.4 16.0 77 2.5 ENE 20 24 11 13 1019.5 1019.5 0.0
21/07:30pm 20.1 18.3 15.9 77 2.5 ENE 20 24 11 13 1019.1 1019.1 0.0
21/07:00pm 20.0 18.2 16.0 78 2.4 E 20 24 11 13 1018.6 1018.6 0.0
21/06:30pm 19.9 18.4 15.3 75 2.7 E 17 19 9 10 1018.6 1018.6 0.0
21/06:00pm 19.9 18.7 15.1 74 2.8 E 15 20 8 11 1018.5 1018.5 0.0
21/05:30pm 20.1 18.5 15.1 73 2.9 E 17 20 9 11 1018.4 1018.4 0.0
21/05:00pm 20.2 18.0 15.0 72 3.0 E 20 24 11 13 1018.2 1018.2 0.0

Other Formats:

Comma delimited format used in spreadsheet applications
http://www.bom.gov.au/fwo/IDQ60801/IDQ60801.94373.axf

JavaScript Object Notation format (JSON) in row-major order
http://www.bom.gov.au/fwo/IDQ60801/IDQ60801.94373.json